Time;durP1;ratioP1;P1;durP2;ratioP2;P2;SDS_P1;SDS_P2;PMS_P1;PMS_P2;Temp;Humidity;BMP_temperature;BMP_pressure;BME280_temperature;BME280_humidity;BME280_pressure;Samples;Min_cycle;Max_cycle;Signal;HPM_P1;HPM_P2
2021/04/26 00:02:13;;;;;;;1.77;0.90;;;23.50;34.40;;;;;;5085180;28;20526;-55
2021/04/26 00:04:39;;;;;;;1.80;1.00;;;23.40;34.40;;;;;;5086730;28;20020;-55
2021/04/26 00:07:04;;;;;;;1.25;0.80;;;23.40;34.40;;;;;;5088995;28;20102;-52
2021/04/26 00:09:30;;;;;;;1.98;1.05;;;23.40;34.40;;;;;;5084797;28;20507;-53
2021/04/26 00:11:56;;;;;;;2.38;1.38;;;23.40;34.40;;;;;;5084051;28;20386;-52
2021/04/26 00:14:22;;;;;;;1.75;0.90;;;23.40;34.40;;;;;;5088875;28;20032;-55
2021/04/26 00:16:48;;;;;;;1.00;0.85;;;23.40;34.40;;;;;;5085472;28;20508;-52
2021/04/26 00:19:14;;;;;;;1.65;1.00;;;23.40;34.40;;;;;;5088430;28;20032;-54
2021/04/26 00:21:39;;;;;;;2.42;1.20;;;23.40;34.40;;;;;;5087742;28;20115;-49
2021/04/26 00:24:06;;;;;;;1.67;1.00;;;23.40;34.40;;;;;;5085828;28;20036;-55
2021/04/26 00:26:32;;;;;;;2.08;1.05;;;23.40;34.40;;;;;;5086277;28;20790;-52
2021/04/26 00:28:57;;;;;;;1.30;0.90;;;23.30;34.40;;;;;;5088076;28;20076;-54
2021/04/26 00:31:23;;;;;;;2.20;1.00;;;23.40;34.40;;;;;;5087401;28;20105;-56
2021/04/26 00:33:50;;;;;;;1.65;0.93;;;23.30;34.40;;;;;;5085405;28;20028;-54
2021/04/26 00:36:15;;;;;;;1.73;0.93;;;23.30;34.40;;;;;;5083684;28;20028;-54
2021/04/26 00:38:41;;;;;;;2.00;0.98;;;23.30;34.40;;;;;;5087759;28;20071;-56
2021/04/26 00:41:07;;;;;;;1.58;0.93;;;23.30;34.40;;;;;;5080880;28;20084;-55
2021/04/26 00:43:33;;;;;;;1.45;0.95;;;23.30;34.40;;;;;;5084590;28;20792;-55
2021/04/26 00:45:58;;;;;;;1.38;0.85;;;23.30;34.40;;;;;;5087574;28;20039;-54
2021/04/26 00:48:24;;;;;;;1.73;0.90;;;23.30;34.40;;;;;;5086398;28;20036;-51
2021/04/26 00:50:50;;;;;;;1.45;0.93;;;23.30;34.40;;;;;;5087288;28;20021;-54
2021/04/26 00:53:16;;;;;;;1.30;0.90;;;23.30;34.50;;;;;;5086506;28;20024;-50
2021/04/26 00:55:43;;;;;;;1.73;0.95;;;23.30;34.40;;;;;;5085964;28;20107;-53
2021/04/26 00:58:09;;;;;;;2.35;0.90;;;23.30;34.50;;;;;;5077648;28;20047;-51
2021/04/26 01:00:35;;;;;;;1.15;0.80;;;23.30;34.40;;;;;;5086933;28;20032;-51
2021/04/26 01:03:02;;;;;;;1.95;0.90;;;23.20;34.40;;;;;;5085194;28;20032;-52
2021/04/26 01:05:29;;;;;;;1.67;0.93;;;23.20;34.40;;;;;;5086096;28;20035;-56
2021/04/26 01:07:56;;;;;;;1.73;0.90;;;23.20;34.40;;;;;;5073111;28;20033;-52
2021/04/26 01:10:26;;;;;;;1.52;0.90;;;23.20;34.40;;;;;;5080578;28;20024;-52
2021/04/26 01:13:06;;;;;;;;;;;23.20;34.40;;;;;;5086694;28;20148;-53
2021/04/26 01:15:39;;;;;;;1.23;0.90;;;23.20;34.50;;;;;;5084114;28;19939;-54
2021/04/26 01:18:11;;;;;;;1.27;0.80;;;23.20;34.40;;;;;;5081153;28;20036;-57
2021/04/26 01:21:05;;;;;;;1.52;0.95;;;23.20;34.40;;;;;;5079405;28;20062;-52
2021/04/26 01:24:00;;;;;;;2.03;1.00;;;23.10;34.40;;;;;;5074547;28;20036;-55
2021/04/26 01:26:53;;;;;;;1.02;0.80;;;23.10;34.40;;;;;;5074768;28;20119;-55
2021/04/26 01:29:56;;;;;;;1.75;0.90;;;23.10;34.40;;;;;;5084788;28;20463;-51
2021/04/26 01:32:29;;;;;;;1.60;0.80;;;23.10;34.40;;;;;;5083381;28;20029;-51
2021/04/26 01:34:56;;;;;;;1.92;0.90;;;23.10;34.40;;;;;;5081293;28;20040;-55
2021/04/26 01:37:22;;;;;;;1.40;0.88;;;23.10;34.40;;;;;;5079737;28;20123;-53
2021/04/26 01:39:50;;;;;;;1.25;0.95;;;23.10;34.40;;;;;;5083550;28;20051;-52
2021/04/26 01:42:18;;;;;;;1.27;0.82;;;23.10;34.40;;;;;;5085861;28;20123;-55
2021/04/26 01:44:44;;;;;;;1.20;0.77;;;23.10;34.40;;;;;;5085959;28;20052;-53
2021/04/26 01:47:11;;;;;;;1.65;1.05;;;23.10;34.50;;;;;;5086491;28;20036;-55
2021/04/26 01:49:38;;;;;;;1.60;0.70;;;23.00;34.40;;;;;;5085042;28;20031;-50
2021/04/26 01:52:08;;;;;;;1.38;0.88;;;23.00;34.40;;;;;;5085514;28;20115;-54
2021/04/26 01:54:33;;;;;;;1.08;0.85;;;23.00;34.40;;;;;;5083716;28;20420;-52
2021/04/26 01:57:00;;;;;;;2.10;1.05;;;23.00;34.40;;;;;;5084922;28;20036;-52
2021/04/26 01:59:26;;;;;;;1.33;0.90;;;23.00;34.40;;;;;;5078244;28;20069;-50
2021/04/26 02:01:56;;;;;;;1.10;0.80;;;23.00;34.40;;;;;;5084305;28;20140;-51
2021/04/26 02:04:27;;;;;;;1.95;0.90;;;23.00;34.40;;;;;;5084588;28;20028;-55
2021/04/26 02:06:54;;;;;;;1.33;0.90;;;23.00;34.40;;;;;;5079300;28;20069;-54
2021/04/26 02:09:20;;;;;;;1.35;0.80;;;23.00;34.40;;;;;;5078292;28;20118;-52
2021/04/26 02:11:46;;;;;;;1.63;0.85;;;23.00;34.40;;;;;;5085917;28;20374;-51
2021/04/26 02:14:14;;;;;;;1.45;0.90;;;23.00;34.40;;;;;;5084110;28;20040;-51
2021/04/26 02:16:39;;;;;;;1.30;1.10;;;23.00;34.40;;;;;;5071798;28;20037;-54
2021/04/26 02:19:06;;;;;;;1.35;0.80;;;23.00;34.40;;;;;;5068518;28;20036;-50
2021/04/26 02:21:33;;;;;;;1.67;0.80;;;23.00;34.40;;;;;;5085700;28;20039;-51
2021/04/26 02:23:59;;;;;;;1.83;1.00;;;23.00;34.40;;;;;;5083610;28;20032;-53
2021/04/26 02:26:24;;;;;;;1.92;1.00;;;23.00;34.50;;;;;;5082839;28;20128;-55
2021/04/26 02:28:50;;;;;;;1.80;1.00;;;22.90;34.40;;;;;;5086419;28;20099;-54
2021/04/26 02:31:20;;;;;;;1.90;1.00;;;22.90;34.40;;;;;;5078831;28;20101;-51
2021/04/26 02:34:01;;;;;;;1.23;0.90;;;22.90;34.40;;;;;;5087892;28;20023;-51
2021/04/26 02:36:33;;;;;;;1.17;0.80;;;22.90;34.50;;;;;;5087786;28;20031;-50
2021/04/26 02:39:07;;;;;;;1.80;0.90;;;22.90;34.50;;;;;;5089600;28;20494;-53
2021/04/26 02:41:35;;;;;;;1.83;1.00;;;22.90;34.50;;;;;;5088979;28;20644;-56
2021/04/26 02:44:06;;;;;;;2.25;0.93;;;22.90;34.50;;;;;;5090060;28;20424;-57
2021/04/26 02:46:34;;;;;;;1.25;0.90;;;22.90;34.50;;;;;;5087163;28;20120;-57
2021/04/26 02:49:02;;;;;;;1.33;0.90;;;22.90;34.50;;;;;;5088064;28;20034;-52
2021/04/26 02:51:34;;;;;;;1.42;0.80;;;22.80;35.00;;;;;;5088222;28;20123;-56
2021/04/26 02:54:01;;;;;;;1.95;1.13;;;22.80;34.40;;;;;;5089672;28;20024;-52
2021/04/26 02:56:27;;;;;;;2.03;1.13;;;22.80;34.50;;;;;;5088488;28;20020;-52
2021/04/26 02:58:56;;;;;;;1.02;0.80;;;22.80;34.40;;;;;;5085156;28;20054;-56
2021/04/26 03:01:23;;;;;;;1.55;0.80;;;22.80;34.50;;;;;;5071211;28;20143;-55
2021/04/26 03:03:50;;;;;;;2.17;0.90;;;22.80;34.50;;;;;;5069761;28;20036;-57
2021/04/26 03:06:16;;;;;;;1.50;0.80;;;22.80;34.50;;;;;;5084292;28;20059;-56
2021/04/26 03:08:42;;;;;;;1.13;0.80;;;22.80;34.50;;;;;;5087975;28;20785;-53
2021/04/26 03:11:11;;;;;;;1.75;1.05;;;22.80;34.50;;;;;;5087030;28;20076;-53
2021/04/26 03:13:38;;;;;;;1.35;0.85;;;22.80;34.50;;;;;;5089011;28;20030;-56
2021/04/26 03:16:04;;;;;;;1.55;0.80;;;22.80;34.50;;;;;;5086116;28;20068;-57
2021/04/26 03:18:32;;;;;;;1.48;0.82;;;22.80;34.50;;;;;;5074849;28;20025;-55
2021/04/26 03:20:58;;;;;;;1.23;0.90;;;22.70;34.50;;;;;;5087158;28;20035;-54
2021/04/26 03:23:27;;;;;;;1.02;0.77;;;22.70;34.50;;;;;;5086655;28;20097;-56
2021/04/26 03:25:57;;;;;;;1.27;0.90;;;22.70;34.50;;;;;;5085226;28;20039;-54
2021/04/26 03:28:24;;;;;;;1.27;0.93;;;22.70;34.50;;;;;;5085351;28;20031;-57
2021/04/26 03:30:50;;;;;;;1.33;0.90;;;22.70;34.50;;;;;;5076385;28;20092;-55
2021/04/26 03:33:16;;;;;;;1.38;0.80;;;22.70;34.50;;;;;;5089016;28;20484;-53
2021/04/26 03:35:43;;;;;;;1.17;0.80;;;22.70;34.50;;;;;;5088508;28;20106;-55
2021/04/26 03:38:11;;;;;;;1.38;0.93;;;22.70;34.50;;;;;;5087600;28;20052;-52
2021/04/26 03:40:37;;;;;;;1.40;0.80;;;22.70;34.60;;;;;;5081830;28;20036;-55
2021/04/26 03:43:04;;;;;;;1.60;0.80;;;22.70;34.60;;;;;;5087180;28;20051;-54
2021/04/26 03:45:29;;;;;;;1.30;0.80;;;22.70;34.60;;;;;;5086958;28;20028;-55
2021/04/26 03:47:56;;;;;;;0.75;0.70;;;22.60;35.00;;;;;;5075778;28;20443;-56
2021/04/26 03:50:25;;;;;;;1.05;0.80;;;22.70;34.60;;;;;;5081253;28;20157;-54
2021/04/26 03:52:51;;;;;;;1.30;0.80;;;22.60;34.50;;;;;;5087515;28;20020;-51
2021/04/26 03:55:20;;;;;;;1.33;0.80;;;22.60;34.50;;;;;;5086220;28;20486;-53
2021/04/26 03:57:46;;;;;;;0.80;0.80;;;22.70;34.60;;;;;;5088131;28;20149;-52
2021/04/26 04:00:13;;;;;;;1.60;0.93;;;22.60;34.50;;;;;;5088486;28;20179;-52
2021/04/26 04:02:39;;;;;;;1.23;0.80;;;22.60;34.50;;;;;;5078614;28;20166;-52
2021/04/26 04:05:07;;;;;;;1.05;0.73;;;22.60;34.60;;;;;;5086723;28;20111;-54
2021/04/26 04:07:36;;;;;;;0.77;0.70;;;22.60;34.60;;;;;;5083091;28;20400;-54
2021/04/26 04:10:06;;;;;;;1.20;0.80;;;22.60;34.60;;;;;;5084561;28;20039;-53
2021/04/26 04:12:33;;;;;;;2.67;0.98;;;22.60;34.60;;;;;;5087160;28;20367;-52
2021/04/26 04:14:59;;;;;;;1.27;0.90;;;22.60;34.60;;;;;;5061857;28;20059;-54
2021/04/26 04:17:26;;;;;;;1.10;0.80;;;22.60;34.70;;;;;;5080172;28;20028;-54
2021/04/26 04:19:52;;;;;;;1.20;0.90;;;22.60;34.60;;;;;;5083187;28;20126;-54
2021/04/26 04:22:17;;;;;;;1.08;0.80;;;22.60;34.60;;;;;;5084117;28;20100;-50
2021/04/26 04:24:43;;;;;;;1.42;0.80;;;22.50;34.60;;;;;;5085681;28;20039;-53
2021/04/26 04:27:09;;;;;;;0.98;0.80;;;22.50;34.80;;;;;;5084616;28;20024;-53
2021/04/26 04:29:35;;;;;;;1.52;0.90;;;22.50;34.60;;;;;;5082774;28;20526;-49
2021/04/26 04:32:00;;;;;;;1.38;1.00;;;22.50;34.60;;;;;;5068997;28;20721;-57
2021/04/26 04:34:26;;;;;;;1.67;0.90;;;22.50;34.60;;;;;;5086814;28;20020;-50
2021/04/26 04:36:52;;;;;;;1.17;0.80;;;22.50;34.60;;;;;;5087422;28;20094;-49
2021/04/26 04:39:18;;;;;;;1.40;0.80;;;22.50;34.60;;;;;;5085190;28;20034;-54
2021/04/26 04:41:44;;;;;;;1.08;0.80;;;22.50;34.60;;;;;;5086102;28;20103;-50
2021/04/26 04:44:10;;;;;;;1.40;0.90;;;22.50;34.70;;;;;;5082158;28;20034;-48
2021/04/26 04:46:36;;;;;;;1.58;0.98;;;22.50;34.70;;;;;;5081442;28;20038;-51
2021/04/26 04:49:01;;;;;;;1.20;0.80;;;22.50;34.70;;;;;;5080767;28;20186;-56
2021/04/26 04:51:27;;;;;;;1.13;0.80;;;22.50;34.70;;;;;;5080704;28;20031;-51
2021/04/26 04:53:53;;;;;;;1.23;0.90;;;22.50;34.70;;;;;;5085209;28;20036;-52
2021/04/26 04:56:19;;;;;;;2.03;0.85;;;22.50;34.70;;;;;;5080640;28;20108;-51
2021/04/26 04:58:45;;;;;;;1.27;0.80;;;22.40;34.70;;;;;;5077952;28;20502;-49
2021/04/26 05:01:11;;;;;;;1.60;0.90;;;22.40;34.70;;;;;;5069043;28;20075;-52
2021/04/26 05:03:37;;;;;;;1.30;0.98;;;22.40;34.70;;;;;;5082936;28;20020;-49
2021/04/26 05:06:03;;;;;;;1.23;0.90;;;22.40;34.70;;;;;;5074229;28;20047;-54
2021/04/26 05:08:28;;;;;;;2.40;0.90;;;22.40;34.70;;;;;;5065735;28;20028;-48
2021/04/26 05:10:54;;;;;;;1.30;0.90;;;22.40;34.70;;;;;;5068190;28;20028;-50
2021/04/26 05:13:20;;;;;;;0.85;0.70;;;22.40;34.80;;;;;;5082214;28;20111;-52
2021/04/26 05:15:45;;;;;;;1.45;1.00;;;22.40;34.80;;;;;;5077537;28;20115;-52
2021/04/26 05:18:11;;;;;;;1.40;0.90;;;22.40;34.80;;;;;;5081205;28;20157;-50
2021/04/26 05:20:40;;;;;;;1.70;1.15;;;22.30;34.70;;;;;;5082649;28;20044;-50
2021/04/26 05:23:06;;;;;;;1.77;1.05;;;22.30;34.70;;;;;;5083082;28;20028;-51
2021/04/26 05:25:31;;;;;;;2.17;1.00;;;22.30;34.70;;;;;;5071338;28;20027;-52
2021/04/26 05:27:57;;;;;;;1.50;0.90;;;22.30;34.80;;;;;;5081553;28;20047;-51
2021/04/26 05:30:23;;;;;;;1.00;0.90;;;22.30;34.70;;;;;;5082458;28;20466;-54
2021/04/26 05:32:49;;;;;;;1.88;1.00;;;22.30;34.80;;;;;;5080886;28;20031;-51
2021/04/26 05:35:14;;;;;;;1.83;1.00;;;22.30;34.80;;;;;;5078467;28;20028;-50
2021/04/26 05:37:40;;;;;;;1.92;1.10;;;22.30;34.90;;;;;;5078497;28;20028;-51
2021/04/26 05:40:06;;;;;;;2.78;1.20;;;22.30;35.20;;;;;;5081681;28;20385;-51
2021/04/26 05:42:32;;;;;;;1.90;1.00;;;22.40;35.20;;;;;;5085962;28;20198;-50
2021/04/26 05:44:57;;;;;;;2.22;1.33;;;22.50;35.10;;;;;;5083237;28;20150;-54
2021/04/26 05:47:23;;;;;;;2.20;1.02;;;22.60;35.00;;;;;;5083268;28;20032;-50
2021/04/26 05:49:49;;;;;;;1.48;1.00;;;22.60;34.80;;;;;;5080185;28;20043;-49
2021/04/26 05:52:14;;;;;;;2.03;1.05;;;22.70;34.70;;;;;;5085147;28;20371;-50
2021/04/26 05:54:40;;;;;;;2.15;1.10;;;22.80;34.60;;;;;;5083349;28;20155;-48
2021/04/26 05:57:07;;;;;;;1.73;1.00;;;23.00;34.40;;;;;;5085192;28;20039;-53
2021/04/26 05:59:32;;;;;;;2.30;1.20;;;23.00;34.30;;;;;;5083352;28;20032;-53
2021/04/26 06:01:58;;;;;;;2.55;1.17;;;23.10;34.20;;;;;;5070913;28;20046;-52
2021/04/26 06:04:23;;;;;;;1.88;1.20;;;23.30;34.10;;;;;;5070709;28;20544;-48
2021/04/26 06:06:49;;;;;;;1.75;1.17;;;23.30;33.80;;;;;;5084747;28;20020;-50
2021/04/26 06:09:15;;;;;;;1.45;1.00;;;23.30;33.80;;;;;;5090003;28;20027;-47
2021/04/26 06:11:41;;;;;;;2.00;1.13;;;23.30;33.90;;;;;;5092427;28;20032;-47
2021/04/26 06:14:07;;;;;;;2.45;1.30;;;23.30;34.00;;;;;;5090278;28;20058;-50
2021/04/26 06:16:33;;;;;;;2.50;1.17;;;23.20;34.00;;;;;;5090554;28;20028;-54
2021/04/26 06:18:58;;;;;;;1.70;1.10;;;23.20;34.10;;;;;;5091545;28;20121;-54
2021/04/26 06:21:24;;;;;;;1.70;1.10;;;23.30;34.10;;;;;;5090956;28;20111;-50
2021/04/26 06:23:49;;;;;;;1.67;1.10;;;23.20;34.00;;;;;;5090958;28;20512;-48
2021/04/26 06:26:15;;;;;;;1.67;1.02;;;23.30;34.10;;;;;;5091739;28;20036;-54
2021/04/26 06:28:41;;;;;;;2.47;1.20;;;23.30;34.10;;;;;;5094443;27;20028;-53
2021/04/26 06:31:06;;;;;;;2.03;1.05;;;23.30;34.00;;;;;;5089218;28;20343;-53
2021/04/26 06:33:32;;;;;;;3.80;1.20;;;23.30;34.10;;;;;;5096735;28;20047;-51
2021/04/26 06:35:58;;;;;;;1.73;1.10;;;23.30;34.10;;;;;;5089002;28;20425;-57
2021/04/26 06:38:23;;;;;;;2.05;1.10;;;23.30;34.00;;;;;;5087502;28;20034;-52
2021/04/26 06:40:50;;;;;;;2.38;1.30;;;23.30;34.00;;;;;;5088969;28;20344;-55
2021/04/26 06:43:16;;;;;;;1.73;1.02;;;23.30;34.00;;;;;;5088299;28;20035;-49
2021/04/26 06:45:42;;;;;;;2.28;1.42;;;23.30;34.00;;;;;;5087225;28;20024;-52
2021/04/26 06:48:09;;;;;;;2.42;1.25;;;23.30;34.00;;;;;;5088736;28;20050;-52
2021/04/26 06:50:35;;;;;;;2.15;1.00;;;23.30;34.00;;;;;;5089302;28;20031;-50
2021/04/26 06:53:01;;;;;;;2.15;1.00;;;23.30;34.00;;;;;;5075280;28;20489;-52
2021/04/26 06:55:27;;;;;;;2.65;1.17;;;23.40;34.10;;;;;;5061047;28;20028;-51
2021/04/26 06:57:53;;;;;;;1.45;1.05;;;23.40;34.00;;;;;;5081580;28;20094;-51
2021/04/26 07:00:21;;;;;;;2.47;1.20;;;23.40;34.00;;;;;;5085381;28;20111;-50
2021/04/26 07:02:50;;;;;;;1.85;1.05;;;23.40;34.60;;;;;;5068472;28;20047;-55
2021/04/26 07:05:16;;;;;;;1.83;1.10;;;23.40;34.00;;;;;;5071044;28;20042;-50
2021/04/26 07:07:42;;;;;;;1.63;1.00;;;23.40;34.00;;;;;;5065955;28;20423;-53
2021/04/26 07:10:08;;;;;;;1.60;0.98;;;23.40;33.90;;;;;;5078022;28;20043;-51
2021/04/26 07:12:34;;;;;;;2.13;1.10;;;23.50;34.00;;;;;;5086975;28;20036;-52
2021/04/26 07:15:00;;;;;;;1.30;0.90;;;23.40;34.00;;;;;;5086153;28;20394;-52
2021/04/26 07:17:26;;;;;;;1.52;1.00;;;23.50;34.00;;;;;;5075297;28;20013;-53
2021/04/26 07:19:52;;;;;;;2.67;1.20;;;23.50;34.00;;;;;;5088925;28;20514;-53
2021/04/26 07:22:18;;;;;;;2.47;1.00;;;23.50;34.00;;;;;;5084439;28;20111;-54
2021/04/26 07:24:44;;;;;;;2.50;1.17;;;23.60;34.10;;;;;;5075615;28;20020;-52
2021/04/26 07:27:10;;;;;;;2.47;1.10;;;23.60;34.00;;;;;;5087336;28;20346;-54
2021/04/26 07:29:36;;;;;;;2.10;1.20;;;23.60;34.00;;;;;;5087488;28;20073;-53
2021/04/26 07:32:02;;;;;;;1.83;1.02;;;23.60;34.00;;;;;;5073365;28;20389;-53
2021/04/26 07:34:27;;;;;;;2.15;1.10;;;23.60;34.00;;;;;;5071915;28;20020;-52
2021/04/26 07:36:53;;;;;;;1.42;0.80;;;23.60;34.00;;;;;;5069103;28;20040;-56
2021/04/26 07:39:19;;;;;;;1.98;1.10;;;23.60;33.90;;;;;;5067267;28;20032;-57
2021/04/26 07:41:46;;;;;;;1.58;1.00;;;23.60;33.90;;;;;;5070724;28;20053;-51
2021/04/26 07:44:11;;;;;;;2.35;1.15;;;23.70;34.00;;;;;;5067333;28;20320;-54
2021/04/26 07:46:37;;;;;;;1.30;0.93;;;23.70;34.00;;;;;;5074409;28;20029;-57
2021/04/26 07:49:03;;;;;;;1.65;1.00;;;23.70;34.00;;;;;;5055765;28;20029;-55
2021/04/26 07:51:28;;;;;;;1.65;1.05;;;23.70;34.00;;;;;;5067613;28;20044;-54
2021/04/26 07:53:54;;;;;;;1.63;0.95;;;23.70;34.00;;;;;;5066155;28;20162;-53
2021/04/26 07:56:20;;;;;;;3.38;1.17;;;23.70;34.00;;;;;;5066130;28;20423;-52
2021/04/26 07:58:45;;;;;;;2.45;1.20;;;23.70;34.00;;;;;;5053871;28;20033;-52
2021/04/26 08:01:11;;;;;;;1.58;1.00;;;23.70;34.00;;;;;;5066222;28;20037;-52
2021/04/26 08:03:37;;;;;;;2.00;1.17;;;23.70;33.90;;;;;;5067290;28;20040;-50
2021/04/26 08:06:04;;;;;;;1.92;1.10;;;23.70;33.90;;;;;;5066449;28;20032;-56
2021/04/26 08:08:30;;;;;;;2.45;1.30;;;23.70;33.90;;;;;;5066796;28;20033;-55
2021/04/26 08:10:56;;;;;;;1.73;1.00;;;23.70;33.90;;;;;;5060784;28;20486;-53
2021/04/26 08:13:22;;;;;;;2.13;1.10;;;23.80;33.90;;;;;;5060035;28;20040;-52
2021/04/26 08:15:48;;;;;;;2.17;1.20;;;23.80;33.90;;;;;;5065936;28;20702;-52
2021/04/26 08:18:13;;;;;;;2.00;1.15;;;23.80;33.90;;;;;;5065718;28;20026;-53
2021/04/26 08:20:39;;;;;;;2.22;1.17;;;23.80;33.90;;;;;;5067037;28;20037;-48
2021/04/26 08:23:05;;;;;;;1.90;1.13;;;23.80;33.90;;;;;;5065703;28;20039;-53
2021/04/26 08:25:30;;;;;;;2.53;1.00;;;23.80;33.90;;;;;;5065437;28;20040;-57
2021/04/26 08:27:57;;;;;;;2.22;1.05;;;23.90;34.00;;;;;;5066962;28;20094;-57
2021/04/26 08:30:23;;;;;;;1.48;0.90;;;23.90;34.00;;;;;;5062406;28;20206;-56
2021/04/26 08:32:49;;;;;;;2.40;1.10;;;23.90;34.00;;;;;;5062133;28;20052;-58
2021/04/26 08:35:14;;;;;;;1.77;1.10;;;23.90;34.00;;;;;;5060983;28;20060;-54
2021/04/26 08:37:40;;;;;;;2.42;1.10;;;23.90;34.00;;;;;;5064517;28;20036;-50
2021/04/26 08:40:07;;;;;;;1.88;1.17;;;23.90;34.00;;;;;;5071893;28;20382;-52
2021/04/26 08:42:32;;;;;;;1.60;1.02;;;23.90;34.00;;;;;;5068897;28;20024;-56
2021/04/26 08:44:58;;;;;;;2.28;1.30;;;24.00;34.00;;;;;;5066306;28;20394;-57
2021/04/26 08:47:25;;;;;;;2.00;1.10;;;24.00;34.00;;;;;;5058815;28;20138;-56
2021/04/26 08:49:55;;;;;;;2.25;1.00;;;24.00;34.00;;;;;;5071298;28;20537;-58
2021/04/26 08:52:21;;;;;;;1.50;0.98;;;24.00;34.00;;;;;;5057511;28;20032;-51
2021/04/26 08:54:47;;;;;;;1.27;0.90;;;24.00;34.00;;;;;;5071555;28;20039;-52
2021/04/26 08:57:13;;;;;;;1.83;1.08;;;24.00;34.00;;;;;;5066309;28;20888;-57
2021/04/26 08:59:42;;;;;;;1.83;1.10;;;24.10;34.10;;;;;;5067390;28;20024;-55
2021/04/26 09:02:09;;;;;;;2.08;0.90;;;24.10;34.20;;;;;;5069892;28;20050;-56
2021/04/26 09:04:36;;;;;;;1.30;0.95;;;24.10;34.20;;;;;;5066786;28;20363;-53
2021/04/26 09:07:04;;;;;;;1.67;1.05;;;24.10;34.20;;;;;;5066817;28;20112;-58
2021/04/26 09:09:35;;;;;;;1.77;1.00;;;24.10;34.20;;;;;;5065440;28;20029;-54
2021/04/26 09:12:02;;;;;;;1.95;1.00;;;24.20;34.10;;;;;;5066507;28;20052;-52
2021/04/26 09:14:38;;;;;;;3.10;1.27;;;24.10;34.10;;;;;;5065707;28;20124;-55
2021/04/26 09:17:25;;;;;;;2.72;1.00;;;24.10;34.10;;;;;;5069522;28;20028;-52
2021/04/26 09:19:55;;;;;;;1.98;1.08;;;24.20;34.10;;;;;;5060866;28;20020;-54
2021/04/26 09:22:47;;;;;;;2.45;0.90;;;24.20;34.20;;;;;;5057605;28;20127;-53
2021/04/26 09:25:28;;;;;;;1.80;1.00;;;24.20;34.10;;;;;;5051869;28;20048;-57
2021/04/26 09:28:17;;;;;;;2.47;0.93;;;24.20;34.10;;;;;;5058163;28;20047;-54
2021/04/26 09:30:53;;;;;;;1.60;0.80;;;24.20;34.30;;;;;;5070620;28;20114;-52
2021/04/26 09:33:26;;;;;;;1.30;0.80;;;24.20;34.30;;;;;;5083401;28;20419;-55
2021/04/26 09:36:04;;;;;;;1.73;0.98;;;24.20;34.20;;;;;;5084829;28;20036;-50
2021/04/26 09:38:36;;;;;;;1.33;0.90;;;24.30;34.30;;;;;;5084810;28;20360;-54
2021/04/26 09:41:19;;;;;;;2.05;1.10;;;24.20;34.20;;;;;;5085316;28;20064;-53
2021/04/26 09:44:07;;;;;;;1.77;1.00;;;24.20;34.30;;;;;;5073166;28;20385;-54
2021/04/26 09:46:51;;;;;;;1.88;1.10;;;24.20;34.30;;;;;;5071507;28;20425;-53
2021/04/26 09:49:19;;;;;;;1.92;1.00;;;24.20;34.30;;;;;;5079024;28;20698;-56
2021/04/26 09:51:54;;;;;;;2.40;1.00;;;24.20;34.30;;;;;;5084668;28;20020;-54
2021/04/26 09:54:37;;;;;;;2.60;1.27;;;24.20;34.30;;;;;;5065909;28;20028;-55
2021/04/26 09:57:03;;;;;;;1.83;1.00;;;24.20;34.30;;;;;;5076806;28;20042;-55
2021/04/26 09:59:28;;;;;;;1.92;1.00;;;24.20;34.30;;;;;;5086155;28;20024;-55
2021/04/26 10:01:55;;;;;;;2.42;1.08;;;24.10;34.20;;;;;;5083074;28;20044;-57
2021/04/26 10:04:21;;;;;;;2.30;1.20;;;24.10;34.20;;;;;;5080196;28;20177;-54
2021/04/26 10:06:47;;;;;;;1.92;1.10;;;24.20;34.30;;;;;;5077300;28;20060;-53
2021/04/26 10:09:13;;;;;;;4.05;1.30;;;24.10;34.10;;;;;;5083851;28;20378;-56
2021/04/26 10:11:39;;;;;;;2.88;1.30;;;24.20;34.10;;;;;;5083417;28;20046;-54
2021/04/26 10:14:06;;;;;;;1.83;1.10;;;24.20;34.00;;;;;;5072917;28;20047;-55
2021/04/26 10:16:44;;;;;;;2.17;1.20;;;24.20;34.00;;;;;;5088933;28;20075;-57
2021/04/26 10:19:15;;;;;;;3.75;1.27;;;24.20;34.00;;;;;;5093561;28;20027;-54
2021/04/26 10:21:42;;;;;;;1.92;1.10;;;24.20;34.00;;;;;;5090138;28;20036;-54
2021/04/26 10:24:17;;;;;;;2.08;1.13;;;24.20;34.00;;;;;;5092330;28;20092;-58
2021/04/26 10:26:57;;;;;;;2.50;1.20;;;24.20;34.10;;;;;;5092506;28;20024;-58
2021/04/26 10:29:27;;;;;;;3.00;1.20;;;24.20;34.10;;;;;;5085646;28;20087;-57
2021/04/26 10:32:02;;;;;;;3.65;1.38;;;24.20;34.20;;;;;;5085821;28;20043;-56
2021/04/26 10:34:41;;;;;;;2.05;1.20;;;24.20;34.20;;;;;;5083760;28;20039;-57
2021/04/26 10:37:16;;;;;;;2.72;1.27;;;24.20;34.20;;;;;;5078928;28;20336;-58
2021/04/26 10:39:57;;;;;;;1.73;1.02;;;24.20;34.20;;;;;;5085064;28;20028;-53
2021/04/26 10:42:43;;;;;;;2.00;1.20;;;24.20;34.20;;;;;;5087193;28;20059;-56
2021/04/26 10:45:20;;;;;;;2.05;1.30;;;24.20;34.20;;;;;;5088336;28;20225;-59
2021/04/26 10:48:07;;;;;;;2.58;1.10;;;24.20;34.20;;;;;;5080368;28;20039;-56
2021/04/26 10:50:38;;;;;;;2.60;1.20;;;24.30;34.30;;;;;;5086635;28;20031;-54
2021/04/26 10:53:05;;;;;;;2.10;1.10;;;24.20;34.20;;;;;;5070644;28;20355;-54
2021/04/26 10:55:34;;;;;;;2.85;1.63;;;24.30;34.30;;;;;;5090167;28;20016;-55
2021/04/26 10:58:04;;;;;;;2.65;1.20;;;24.20;34.30;;;;;;5095850;28;20032;-54
2021/04/26 11:00:36;;;;;;;2.40;1.17;;;24.30;34.30;;;;;;5097431;28;20103;-55
2021/04/26 11:03:05;;;;;;;1.83;1.17;;;24.30;34.30;;;;;;5075589;28;20040;-58
2021/04/26 11:05:44;;;;;;;2.00;1.13;;;24.30;34.30;;;;;;5094962;28;20025;-56
2021/04/26 11:08:51;;;;;;;2.17;1.20;;;24.30;34.30;;;;;;5086813;28;20038;-57
2021/04/26 11:13:52;;;;;;;1.90;1.20;;;24.30;34.40;;;;;;5089328;28;20031;-56
2021/04/26 11:16:30;;;;;;;1.70;0.90;;;24.30;34.40;;;;;;5088924;28;20068;-58
2021/04/26 11:19:04;;;;;;;2.30;1.13;;;24.30;34.40;;;;;;5089084;28;20055;-59
2021/04/26 11:21:42;;;;;;;1.95;1.20;;;24.30;34.40;;;;;;5088736;28;20052;-59
2021/04/26 11:24:31;;;;;;;2.05;1.33;;;24.30;34.40;;;;;;5087731;28;20471;-58
2021/04/26 11:27:08;;;;;;;2.83;1.10;;;24.30;34.30;;;;;;5068929;28;20044;-60
2021/04/26 11:29:55;;;;;;;3.72;1.30;;;24.30;34.30;;;;;;5082923;28;20109;-58
2021/04/26 11:32:25;;;;;;;2.28;1.20;;;24.30;34.40;;;;;;5086209;28;20036;-58
2021/04/26 11:34:53;;;;;;;1.92;1.13;;;24.30;34.40;;;;;;5087976;28;20178;-58
2021/04/26 11:37:36;;;;;;;1.52;1.08;;;24.30;34.40;;;;;;5089947;28;20117;-60
2021/04/26 11:40:31;;;;;;;1.95;1.10;;;24.30;34.40;;;;;;5085089;28;20039;-59
2021/04/26 11:43:08;;;;;;;1.42;1.00;;;24.30;34.40;;;;;;5081918;28;20100;-56
2021/04/26 11:45:35;;;;;;;2.17;1.13;;;24.30;34.40;;;;;;5077471;28;20167;-58
2021/04/26 11:48:01;;;;;;;2.10;1.10;;;24.30;34.40;;;;;;5069720;28;20020;-58
2021/04/26 11:50:27;;;;;;;2.72;1.20;;;24.30;34.40;;;;;;5083938;28;20065;-56
2021/04/26 11:52:52;;;;;;;2.45;1.20;;;24.30;34.30;;;;;;5082347;28;20028;-60
2021/04/26 11:55:20;;;;;;;1.92;1.20;;;24.40;34.40;;;;;;5081560;28;20164;-57
2021/04/26 11:57:55;;;;;;;2.17;1.17;;;24.40;34.40;;;;;;5085797;28;20547;-60
2021/04/26 12:00:24;;;;;;;2.63;1.10;;;24.40;34.40;;;;;;5071095;28;20028;-60
2021/04/26 12:02:53;;;;;;;2.42;1.10;;;24.40;34.40;;;;;;5080115;28;20020;-54
2021/04/26 12:05:23;;;;;;;1.75;1.10;;;24.40;34.40;;;;;;5077481;28;20027;-56
2021/04/26 12:07:49;;;;;;;;;;;24.40;34.40;;;;;;5084109;28;20031;-58
2021/04/26 12:10:22;;;;;;;2.72;1.02;;;24.40;34.40;;;;;;5084486;28;20613;-59
2021/04/26 12:12:48;;;;;;;2.05;1.00;;;24.40;34.30;;;;;;5084024;28;20034;-60
2021/04/26 12:15:19;;;;;;;2.10;1.10;;;24.40;34.40;;;;;;5086671;28;20081;-57
2021/04/26 12:17:48;;;;;;;1.90;1.20;;;24.40;34.40;;;;;;5082841;28;20508;-58
2021/04/26 12:20:22;;;;;;;2.35;1.00;;;24.50;34.50;;;;;;5085568;28;20028;-59
2021/04/26 12:22:50;;;;;;;2.35;1.10;;;24.50;34.40;;;;;;5085997;28;20112;-58
2021/04/26 12:25:18;;;;;;;1.70;0.93;;;24.50;34.40;;;;;;5087850;28;20032;-58
2021/04/26 12:27:44;;;;;;;2.03;1.10;;;24.50;34.40;;;;;;5084366;28;20111;-59
2021/04/26 12:30:23;;;;;;;2.83;1.15;;;24.50;34.40;;;;;;5085269;28;20044;-59
2021/04/26 12:32:50;;;;;;;2.42;1.10;;;24.50;34.30;;;;;;5077391;28;20408;-56
2021/04/26 12:35:23;;;;;;;2.47;1.10;;;24.50;34.30;;;;;;5082516;28;20040;-58
2021/04/26 12:37:51;;;;;;;2.08;1.05;;;24.50;34.30;;;;;;5082055;28;20335;-57
2021/04/26 12:40:25;;;;;;;1.65;1.05;;;24.60;34.40;;;;;;5081231;28;20101;-59
2021/04/26 12:42:56;;;;;;;1.75;1.00;;;24.50;34.40;;;;;;5078588;28;20024;-60
2021/04/26 12:45:36;;;;;;;1.73;0.90;;;24.60;34.40;;;;;;5083001;28;20032;-59
2021/04/26 12:48:11;;;;;;;1.67;1.00;;;24.60;34.40;;;;;;5081489;28;20032;-59
2021/04/26 12:50:51;;;;;;;2.00;1.10;;;24.60;34.50;;;;;;5081532;28;20545;-59
2021/04/26 12:53:29;;;;;;;2.08;1.00;;;24.60;34.40;;;;;;5069788;28;20109;-58
2021/04/26 12:56:11;;;;;;;1.90;1.00;;;24.60;34.40;;;;;;5076073;28;20032;-56
2021/04/26 12:58:50;;;;;;;2.50;1.10;;;24.60;34.40;;;;;;5076334;28;20146;-57
2021/04/26 13:01:25;;;;;;;3.45;1.10;;;24.60;34.30;;;;;;5063336;28;20072;-58